createdAt,value
2022-09-11T00:00:00.294Z,81
2022-09-11T00:10:00.287Z,81
2022-09-11T00:20:00.295Z,81
2022-09-11T00:30:00.347Z,81
2022-09-11T00:40:00.500Z,81
2022-09-11T00:50:00.298Z,81
2022-09-11T01:00:00.308Z,81
2022-09-11T01:10:00.302Z,81
2022-09-11T01:20:00.508Z,81
2022-09-11T01:30:00.381Z,81
2022-09-11T01:40:00.447Z,81
2022-09-11T01:50:00.309Z,81
2022-09-11T02:00:00.318Z,81
2022-09-11T02:10:00.312Z,82
2022-09-11T02:20:00.614Z,82
2022-09-11T02:30:00.377Z,82
2022-09-11T02:40:00.734Z,82
2022-09-11T02:50:00.286Z,82
2022-09-11T03:00:00.334Z,82
2022-09-11T03:10:00.301Z,83
2022-09-11T03:20:00.371Z,83
2022-09-11T03:30:00.382Z,83
2022-09-11T03:40:00.431Z,83
2022-09-11T03:50:00.312Z,83
2022-09-11T04:00:00.553Z,83
2022-09-11T04:10:00.282Z,83
2022-09-11T04:20:00.352Z,83
2022-09-11T04:30:00.381Z,83
2022-09-11T04:40:00.437Z,83
2022-09-11T04:50:00.290Z,83
2022-09-11T05:00:00.302Z,83
2022-09-11T05:10:00.326Z,83
2022-09-11T05:20:00.284Z,83
2022-09-11T05:30:00.377Z,83
2022-09-11T05:40:00.539Z,83
2022-09-11T05:50:00.312Z,84
2022-09-11T06:00:00.301Z,83
2022-09-11T06:10:03.568Z,84
2022-09-11T06:20:00.313Z,84
2022-09-11T06:30:00.353Z,84
2022-09-11T06:40:00.494Z,84
2022-09-11T06:50:00.307Z,84
2022-09-11T07:00:00.322Z,84
2022-09-11T07:10:00.278Z,84
2022-09-11T07:20:00.284Z,84
2022-09-11T07:30:00.379Z,84
2022-09-11T07:40:01.110Z,84
2022-09-11T07:50:00.294Z,83
2022-09-11T08:00:00.304Z,83
2022-09-11T08:10:26.485Z,82
2022-09-11T08:20:00.377Z,80
2022-09-11T08:30:00.556Z,77
2022-09-11T09:00:00.291Z,74
2022-09-11T09:10:00.291Z,74
2022-09-11T09:20:00.288Z,74
2022-09-11T09:30:00.399Z,74
2022-09-11T09:40:00.509Z,74
2022-09-11T09:50:00.272Z,74
2022-09-11T10:00:00.312Z,74
2022-09-11T10:10:00.282Z,74
2022-09-11T10:20:00.307Z,74
2022-09-11T10:30:00.299Z,74
2022-09-11T10:40:00.507Z,74
2022-09-11T10:50:00.329Z,74
2022-09-11T11:00:00.270Z,74
2022-09-11T11:10:00.278Z,74
2022-09-11T11:20:00.305Z,74
2022-09-11T11:30:00.273Z,74
2022-09-11T11:40:00.490Z,74
2022-09-11T11:50:00.263Z,74
2022-09-11T12:00:00.368Z,74
2022-09-11T12:10:00.291Z,74
2022-09-11T12:20:00.280Z,74
2022-09-11T12:30:00.268Z,74
2022-09-11T12:40:00.488Z,74
2022-09-11T12:50:00.275Z,74
2022-09-11T13:00:00.279Z,74
2022-09-11T13:10:00.340Z,74
2022-09-11T13:20:00.430Z,73
2022-09-11T13:30:00.301Z,74
2022-09-11T13:40:00.440Z,74
2022-09-11T13:50:00.266Z,75
2022-09-11T14:00:00.430Z,74
2022-09-11T14:10:00.313Z,73
2022-09-11T14:20:01.383Z,73
2022-09-11T14:30:00.281Z,73
2022-09-11T14:40:00.555Z,74
2022-09-11T14:50:00.284Z,72
2022-09-11T15:00:00.329Z,69
2022-09-11T15:10:00.257Z,69
2022-09-11T15:20:00.520Z,68
2022-09-11T15:30:00.359Z,65
2022-09-11T15:40:00.550Z,63
2022-09-11T15:50:00.316Z,62
2022-09-11T16:00:00.314Z,63
2022-09-11T16:10:00.302Z,63
2022-09-11T16:20:00.302Z,63
2022-09-11T16:30:32.554Z,61
2022-09-11T16:40:00.663Z,62
2022-09-11T16:50:08.313Z,62
2022-09-11T17:00:00.329Z,63
2022-09-11T17:10:00.318Z,64
2022-09-11T17:20:00.334Z,65
2022-09-11T17:30:00.290Z,65
2022-09-11T17:40:00.521Z,66
2022-09-11T17:50:00.294Z,67
2022-09-11T18:00:00.300Z,67
2022-09-11T18:10:00.281Z,68
2022-09-11T18:20:00.300Z,69
2022-09-11T18:30:00.321Z,70
2022-09-11T18:40:00.462Z,71
2022-09-11T18:50:00.416Z,71
2022-09-11T19:00:00.515Z,71
2022-09-11T19:10:00.600Z,72
2022-09-11T19:20:00.727Z,72
2022-09-11T19:30:00.808Z,73
2022-09-11T19:40:00.887Z,73
2022-09-11T19:50:00.735Z,74
2022-09-11T20:00:00.715Z,74
2022-09-11T20:10:00.685Z,74
2022-09-11T20:20:00.925Z,74
2022-09-11T20:30:00.899Z,74
2022-09-11T20:40:00.895Z,75
2022-09-11T20:50:00.923Z,75
2022-09-11T21:00:00.982Z,75
2022-09-11T21:10:00.350Z,75
2022-09-11T21:20:00.309Z,75
2022-09-11T21:30:00.314Z,75
2022-09-11T21:40:00.487Z,75
2022-09-11T21:50:00.288Z,75
2022-09-11T22:00:00.316Z,76
2022-09-11T22:10:00.305Z,76
2022-09-11T22:20:00.691Z,76
2022-09-11T22:30:00.336Z,76
2022-09-11T22:40:00.507Z,77
2022-09-11T22:50:00.276Z,77
2022-09-11T23:00:00.311Z,77
2022-09-11T23:10:00.274Z,77
2022-09-11T23:20:00.298Z,77
2022-09-11T23:30:00.365Z,78
2022-09-11T23:40:00.439Z,78
2022-09-11T23:50:00.297Z,78
